Home > Products > Valid Products > TAF

000
FTUS44 KTSA 260500 RRA
TAFTUL
TAF
KTUL 260541Z 2606/2706 15010KT P6SM BKN120
     FM261200 27008KT P6SM OVC100
     FM261800 31019KT P6SM SCT200
     FM270200 34009KT P6SM SCT200=



000
FTUS44 KTSA 260500 RRA
TAFFSM
TAF
KFSM 260541Z 2606/2706 07004KT P6SM BKN150
     FM261500 29008KT P6SM OVC100
     FM261800 29019KT P6SM SCT200
     FM270100 31011KT P6SM SCT200=



000
FTUS44 KTSA 260500 RRA
TAFFYV
TAF
KFYV 260541Z 2606/2706 18004KT P6SM BKN120
     FM261400 27007KT P6SM OVC090
     FM261800 30018KT P6SM SCT200
     FM270300 31011KT P6SM SCT200=



000
FTUS44 KTSA 260500 RRA
TAFXNA
TAF
KXNA 260541Z 2606/2706 18004KT P6SM BKN120
     FM261400 27007KT P6SM OVC090
     FM261800 30018KT P6SM SCT200
     FM270300 31011KT P6SM SCT200=



000
FTUS44 KTSA 260500 RRA
TAFRVS
TAF
KRVS 260541Z 2606/2706 15005KT P6SM BKN120
     FM261200 26003KT P6SM OVC100
     FM261800 32013KT P6SM SCT200
     FM270000 34004KT P6SM SCT200=



000
FTUS44 KTSA 260500 RRA
TAFMLC
TAF
KMLC 260541Z 2606/2706 19005KT P6SM BKN120
     FM261400 29006KT P6SM BKN110
     FM261800 33017KT P6SM SCT200
     FM270100 33007KT P6SM SCT200=



000
FTUS44 KTSA 252300
TAFFSM
TAF
KFSM 252339Z 2600/2624 VRB03KT P6SM SKC
     FM260500 10004KT P6SM BKN130
     FM261500 28010KT P6SM BKN130
     FM261800 29018KT P6SM SKC=



000
FTUS44 KTSA 252300
TAFRVS
TAF
KRVS 252339Z 2600/2624 19005KT P6SM SCT130
     FM261200 29004KT P6SM BKN100
     FM261800 32008KT P6SM SCT150=



000
FTUS44 KTSA 252300
TAFFYV
TAF
KFYV 252339Z 2600/2624 VRB03KT P6SM SKC
     FM260600 19004KT P6SM BKN130
     FM261400 27010KT P6SM BKN120
     FM261800 31015KT P6SM SCT150=



000
FTUS44 KTSA 252300
TAFXNA
TAF
KXNA 252339Z 2600/2624 VRB03KT P6SM SKC
     FM260600 17005KT P6SM BKN130
     FM261400 28010KT P6SM BKN120
     FM261800 32016KT P6SM SCT150=



000
FTUS44 KTSA 252300
TAFMLC
TAF
KMLC 252339Z 2600/2624 20005KT P6SM SCT150
     FM261300 27008KT P6SM BKN150
     FM261800 33015KT P6SM SCT150=



000
FTUS44 KTSA 252300
TAFTUL
TAF
KTUL 252339Z 2600/2624 18008KT P6SM SCT120
     FM261200 25008KT P6SM BKN100
     FM261800 32016KT P6SM SCT150=



000
FTUS44 KTSA 251700
TAFTUL
TAF
KTUL 251724Z 2518/2618 00000KT P6SM SCT100
     FM252100 22008KT P6SM FEW100
     FM260000 17005KT P6SM SCT250
     FM260600 17008KT P6SM BKN100
     FM261300 31012KT P6SM SCT250=



000
FTUS44 KTSA 251700
TAFMLC
TAF
KMLC 251724Z 2518/2618 01004KT P6SM FEW100
     FM260000 VRB03KT P6SM SCT250
     FM261200 23007KT P6SM SCT250
     FM261500 32009KT P6SM SCT250=



000
FTUS44 KTSA 251700
TAFXNA
TAF
KXNA 251724Z 2518/2618 00000KT P6SM FEW100
     FM260000 VRB03KT P6SM SCT250
     FM261200 20006KT P6SM BKN100
     FM261500 27010KT P6SM SCT250=



000
FTUS44 KTSA 251700
TAFFYV
TAF
KFYV 251724Z 2518/2618 VRB03KT P6SM FEW100
     FM260000 VRB03KT P6SM SCT250
     FM261200 20006KT P6SM BKN100
     FM261500 27010KT P6SM SCT250=



000
FTUS44 KTSA 251700
TAFFSM
TAF
KFSM 251724Z 2518/2618 27005KT P6SM FEW100
     FM260100 19005KT P6SM SCT250
     FM260400 08004KT P6SM SCT250
     FM261500 26005KT P6SM SCT250=



000
FTUS44 KTSA 251700
TAFRVS
TAF
KRVS 251724Z 2518/2618 16005KT P6SM SCT100
     FM252100 22006KT P6SM FEW100
     FM260000 17003KT P6SM SCT250
     FM260600 17005KT P6SM BKN100
     FM261300 31009KT P6SM SCT250=



000
FTUS44 KTSA 251100
TAFTUL
TAF
KTUL 251120Z 2512/2612 33004KT P6SM FEW200
     FM251600 23008KT P6SM SKC
     FM260000 17005KT P6SM SCT250=



000
FTUS44 KTSA 251100
TAFRVS
TAF
KRVS 251120Z 2512/2612 21003KT P6SM SKC
     FM251600 21006KT P6SM SKC
     FM260000 18003KT P6SM SCT250=



000
FTUS44 KTSA 251100
TAFFSM
TAF
KFSM 251120Z 2512/2612 22005KT P6SM SKC
     FM251600 27007KT P6SM SKC
     FM260100 19005KT P6SM SCT250=



000
FTUS44 KTSA 251100
TAFFYV
TAF
KFYV 251120Z 2512/2612 00000KT P6SM SKC
     FM251600 26007KT P6SM SKC
     FM260000 19003KT P6SM SCT250=



000
FTUS44 KTSA 251100
TAFMLC
TAF
KMLC 251120Z 2512/2612 00000KT P6SM SKC
     FM251600 24007KT P6SM SKC
     FM260000 19003KT P6SM SCT250=



000
FTUS44 KTSA 251100
TAFXNA
TAF
KXNA 251120Z 2512/2612 32006KT P6SM SKC
     FM251600 25008KT P6SM SKC
     FM260000 19005KT P6SM SCT250=



000
FTUS44 KTSA 250500
TAFRVS
TAF
KRVS 250521Z 2506/2606 00000KT P6SM SKC
     FM251600 21006KT P6SM SKC
     FM260000 18003KT P6SM SKC=



000
FTUS44 KTSA 250500
TAFTUL
TAF
KTUL 250521Z 2506/2606 32004KT P6SM SKC
     FM251600 23008KT P6SM SKC
     FM260000 17005KT P6SM SKC=



000
FTUS44 KTSA 250500
TAFFSM
TAF
KFSM 250521Z 2506/2606 31005KT P6SM SKC
     FM251600 27007KT P6SM SKC
     FM260100 19005KT P6SM SKC=



000
FTUS44 KTSA 250500
TAFFYV
TAF
KFYV 250521Z 2506/2606 29005KT P6SM SKC
     FM251600 26007KT P6SM SKC
     FM260000 19003KT P6SM SKC=



000
FTUS44 KTSA 250500
TAFXNA
TAF
KXNA 250521Z 2506/2606 26005KT P6SM SKC
     FM251600 25008KT P6SM SKC
     FM260000 19005KT P6SM SKC=



000
FTUS44 KTSA 250500
TAFMLC
TAF
KMLC 250521Z 2506/2606 00000KT P6SM SKC
     FM251600 24007KT P6SM SKC
     FM260000 19003KT P6SM SKC=



000
FTUS44 KTSA 242300
TAFFSM
TAF
KFSM 242321Z 2500/2524 28018G26KT P6SM SKC
     FM250200 28003KT P6SM SKC
     FM251600 27007KT P6SM SKC=



000
FTUS44 KTSA 242300
TAFRVS
TAF
KRVS 242321Z 2500/2524 29007G18KT P6SM SKC
     FM250100 00000KT P6SM SKC
     FM251600 21006KT P6SM SKC=



000
FTUS44 KTSA 242300
TAFTUL
TAF
KTUL 242321Z 2500/2524 29015G26KT P6SM SKC
     FM250200 31005KT P6SM SKC
     FM251600 23008KT P6SM SKC=



000
FTUS44 KTSA 242300
TAFFYV
TAF
KFYV 242321Z 2500/2524 28011G23KT P6SM SKC
     FM250100 28003KT P6SM SKC
     FM251600 26007KT P6SM SKC=



000
FTUS44 KTSA 242300
TAFXNA
TAF
KXNA 242321Z 2500/2524 27017G23KT P6SM SCT070
     FM250100 29005KT P6SM SKC
     FM251600 25008KT P6SM SKC=



000
FTUS44 KTSA 242300
TAFMLC
TAF
KMLC 242321Z 2500/2524 28010G20KT P6SM SKC
     FM250100 VRB03KT P6SM SKC
     FM251600 24007KT P6SM SKC=



000
FTUS44 KTSA 241700
TAFFSM
TAF
KFSM 241732Z 2418/2518 26013KT P6SM SKC
     FM241900 28014G20KT P6SM SKC
     FM250000 30005KT P6SM SKC=



000
FTUS44 KTSA 241700
TAFXNA
TAF
KXNA 241732Z 2418/2518 28014G20KT P6SM SKC
     FM250000 32005KT P6SM SKC=



000
FTUS44 KTSA 241700
TAFMLC
TAF
KMLC 241732Z 2418/2518 28010G17KT P6SM SKC
     FM250000 32003KT P6SM SKC=



000
FTUS44 KTSA 241700
TAFRVS
TAF
KRVS 241732Z 2418/2518 28011G19KT P6SM SKC
     FM250000 33004KT P6SM SKC=



000
FTUS44 KTSA 241700
TAFFYV
TAF
KFYV 241732Z 2418/2518 28012G19KT P6SM SKC
     FM250000 30004KT P6SM SKC=



000
FTUS44 KTSA 241700
TAFTUL
TAF
KTUL 241732Z 2418/2518 28014G22KT P6SM SKC
     FM250000 32005KT P6SM SKC=



000
FTUS44 KTSA 241100
TAFFYV
TAF
KFYV 241120Z 2412/2512 26012KT P6SM SKC
     FM241600 28012G23KT P6SM SKC
     FM250000 VRB03KT P6SM SKC=



000
FTUS44 KTSA 241100
TAFFSM
TAF
KFSM 241120Z 2412/2512 27011KT P6SM SKC
     FM241600 28015G25KT P6SM SKC
     FM250000 29005KT P6SM SKC=



000
FTUS44 KTSA 241100
TAFXNA
TAF
KXNA 241120Z 2412/2512 26009KT P6SM SKC
     FM241600 28012G23KT P6SM SKC
     FM250000 28005KT P6SM SKC=



000
FTUS44 KTSA 241100
TAFRVS
TAF
KRVS 241120Z 2412/2512 25004KT P6SM SKC
     FM241600 28014G23KT P6SM SKC
     FM250000 26008KT P6SM SKC=



000
FTUS44 KTSA 241100
TAFMLC
TAF
KMLC 241120Z 2412/2512 25003KT P6SM SKC
     FM241500 29013G21KT P6SM SKC
     FM250000 VRB03KT P6SM SKC=



000
FTUS44 KTSA 241100
TAFTUL
TAF
KTUL 241120Z 2412/2512 26008KT P6SM SKC
     FM241600 28015G25KT P6SM SKC
     FM250000 26008KT P6SM SKC=



000
FTUS44 KTSA 240500
TAFXNA
TAF
KXNA 240525Z 2406/2506 32015G25KT 4SM -RA OVC011
     FM240800 29013KT P6SM BKN025
     FM241000 29012KT P6SM SCT025 BKN100
     FM241600 28011G23KT P6SM SKC
     FM250000 28005KT P6SM SKC=



000
FTUS44 KTSA 240500
TAFFSM
TAF
KFSM 240525Z 2406/2506 28018G26KT P6SM OVC020
     FM241000 29012KT P6SM SCT020 BKN100
     FM241600 28015G25KT P6SM SKC
     FM250000 28005KT P6SM SKC=



000
FTUS44 KTSA 240500
TAFFYV
TAF
KFYV 240525Z 2406/2506 29010KT P6SM -RA OVC013
     FM240800 30013KT P6SM BKN025
     FM241000 29010KT P6SM SCT025 BKN100
     FM241600 28011G23KT P6SM SKC
     FM250000 VRB03KT P6SM SKC=



000
FTUS44 KTSA 240500
TAFMLC
TAF
KMLC 240525Z 2406/2506 33015G25KT P6SM BKN024
     FM240900 30010KT P6SM SCT030 BKN100
     FM241500 29012G22KT P6SM SKC
     FM250000 VRB03KT P6SM SKC=



000
FTUS44 KTSA 240500
TAFRVS
TAF
KRVS 240525Z 2406/2506 33009G18KT P6SM SCT022 OVC030
     FM240800 30012KT P6SM BKN100
     FM241600 28015G25KT P6SM SKC
     FM250000 26008KT P6SM SKC=



000
FTUS44 KTSA 240500
TAFTUL
TAF
KTUL 240525Z 2406/2506 33014G24KT P6SM FEW019 BKN030
     FM240800 30012KT P6SM BKN100
     FM241600 28015G25KT P6SM SKC
     FM250000 26008KT P6SM SKC=



000
FTUS44 KTSA 240300 AAA
TAFXNA
TAF AMD
KXNA 240311Z 2403/2424 31015G25KT P6SM -RA OVC009
     FM240800 30013KT P6SM BKN025
     FM241600 27011G23KT P6SM SKC=



000
FTUS44 KTSA 240300 AAA
TAFFYV
TAF AMD
KFYV 240311Z 2403/2424 30013G23KT P6SM -RA BKN009 OVC014
     FM240800 30013KT P6SM SCT035
     FM241600 28011G23KT P6SM SKC=



000
FTUS44 KTSA 240300 AAA
TAFFYV
TAF AMD
KFYV 240311Z 2403/2424 30013G23KT P6SM -RA BKN009 OVC014
     FM240800 30013KT P6SM SCT035
     FM241600 28011G23KT P6SM SKC=



000
FTUS44 KTSA 240300 AAA
TAFXNA
TAF AMD
KXNA 240311Z 2403/2424 31015G25KT P6SM -RA OVC009
     FM240800 30013KT P6SM BKN025
     FM241600 27011G23KT P6SM SKC=



000
FTUS44 KTSA 240100 AAA
TAFTUL
TAF AMD
KTUL 240113Z 2401/2424 33023G30KT P6SM OVC021
      TEMPO 2401/2403 4SM -RA BR OVC015
     FM240300 33016KT P6SM SCT020 BKN050
     FM240600 30012KT P6SM SCT120
     FM241200 26010KT P6SM SKC
     FM241600 28015G25KT P6SM SKC=



000
FTUS44 KTSA 240100 AAA
TAFRVS
TAF AMD
KRVS 240113Z 2401/2424 33016G27KT P6SM OVC022
      TEMPO 2401/2403 4SM -RA BR BKN015
     FM240300 33016KT P6SM SCT015 BKN050
     FM240600 30012KT P6SM SCT120
     FM241200 26010KT P6SM SKC
     FM241600 28015G25KT P6SM SKC=



000
FTUS44 KTSA 232300
TAFMLC
TAF
KMLC 232320Z 2400/2424 28012G22KT P6SM BKN050
     FM240100 32018G28KT P6SM BKN030
     FM240600 31014KT P6SM SKC
     FM241500 29012G22KT P6SM SKC=



000
FTUS44 KTSA 232300
TAFFSM
TAF
KFSM 232320Z 2400/2424 22015KT P6SM SCT045
     FM240200 28015G25KT P6SM BKN025
     FM240600 30014G26KT P6SM BKN035
     FM240900 29012KT P6SM SKC
     FM241600 28015G25KT P6SM SKC=



000
FTUS44 KTSA 232300
TAFRVS
TAF
KRVS 232320Z 2400/2424 30010G25KT P6SM FEW035 BKN050
      TEMPO 2400/2403 4SM -RA BR BKN025
     FM240300 33016KT P6SM BKN035
     FM240600 30012KT P6SM SCT120
     FM241200 26010KT P6SM SKC
     FM241600 28015G25KT P6SM SKC=



000
FTUS44 KTSA 232300
TAFFYV
TAF
KFYV 232320Z 2400/2424 20009KT P6SM VCTS SCT024CB BKN080
      TEMPO 2400/2402 VRB15G25KT 4SM -TSRA BR BKN018CB
     FM240200 28014G24KT P6SM BKN025
     FM240900 30013KT P6SM SCT035
     FM241600 28011G23KT P6SM SKC=



000
FTUS44 KTSA 232300
TAFXNA
TAF
KXNA 232320Z 2400/2424 19007KT P6SM VCTS FEW045CB BKN060
      TEMPO 2400/2402 VRB15G25KT 4SM -TSRA BR BKN018CB
     FM240200 30014G24KT P6SM BKN025
     FM240900 30013KT P6SM SCT035
     FM241600 27011G23KT P6SM SKC=



000
FTUS44 KTSA 232300
TAFTUL
TAF
KTUL 232320Z 2400/2424 30015G25KT P6SM VCSH SCT035 BKN045
      TEMPO 2400/2403 4SM -RA BR BKN025
     FM240300 33016KT P6SM BKN035
     FM240600 30012KT P6SM SCT120
     FM241200 26010KT P6SM SKC
     FM241600 28015G25KT P6SM SKC=



000
FTUS44 KTSA 232200 AAC
TAFXNA
TAF AMD
KXNA 232204Z 2322/2418 22009KT P6SM VCTS BKN028CB
      TEMPO 2322/2402 4SM -TSRA BR BKN018CB
     FM240600 31014G19KT P6SM BKN025
     FM240900 30014KT P6SM SCT035
     FM241400 28011KT P6SM SCT050=



000
FTUS44 KTSA 232200 AAC
TAFXNA
TAF AMD
KXNA 232204Z 2322/2418 22009KT P6SM VCTS BKN028CB
      TEMPO 2322/2402 4SM -TSRA BR BKN018CB
     FM240600 31014G19KT P6SM BKN025
     FM240900 30014KT P6SM SCT035
     FM241400 28011KT P6SM SCT050=



000
FTUS44 KTSA 232100 AAB
TAFXNA
TAF AMD
KXNA 232130Z 2322/2418 22009KT P6SM BKN028 BKN040
     FM232300 24012G19KT P6SM BKN025
      TEMPO 2323/2403 4SM -TSRA BR BKN018CB
     FM240600 31014G19KT P6SM BKN025
     FM240900 30014KT P6SM SCT035
     FM241400 28011KT P6SM SCT050=



000
FTUS44 KTSA 232100 AAB
TAFXNA
TAF AMD
KXNA 232130Z 2322/2418 22009KT P6SM BKN028 BKN040
     FM232300 24012G19KT P6SM BKN025
      TEMPO 2323/2403 4SM -TSRA BR BKN018CB
     FM240600 31014G19KT P6SM BKN025
     FM240900 30014KT P6SM SCT035
     FM241400 28011KT P6SM SCT050=



000
FTUS44 KTSA 232100 AAB
TAFFYV
TAF AMD
KFYV 232129Z 2321/2418 19010KT P6SM BKN035
     FM232300 24012G19KT P6SM BKN025
      TEMPO 2323/2403 4SM -TSRA BR BKN018CB
     FM240600 31014G19KT P6SM BKN025
     FM240900 30013KT P6SM SCT035
     FM241200 28011KT P6SM SKC=



000
FTUS44 KTSA 232100 AAB
TAFFYV
TAF AMD
KFYV 232129Z 2321/2418 19010KT P6SM BKN035
     FM232300 24012G19KT P6SM BKN025
      TEMPO 2323/2403 4SM -TSRA BR BKN018CB
     FM240600 31014G19KT P6SM BKN025
     FM240900 30013KT P6SM SCT035
     FM241200 28011KT P6SM SKC=



000
FTUS44 KTSA 232100 AAA
TAFMLC
TAF AMD
KMLC 232124Z 2321/2418 24014G21KT P6SM SKC
     FM240100 32018G28KT P6SM BKN050
      TEMPO 2402/2404 BKN018
     FM240600 31014KT P6SM BKN050
     FM240900 28010KT P6SM SKC=



000
FTUS44 KTSA 232100 AAA
TAFMLC
TAF AMD
KMLC 232124Z 2321/2418 24014G21KT P6SM SKC
     FM240100 32018G28KT P6SM BKN050
      TEMPO 2402/2404 BKN018
     FM240600 31014KT P6SM BKN050
     FM240900 28010KT P6SM SKC=



000
FTUS44 KTSA 232000 AAA
TAFFYV
TAF AMD
KFYV 232003Z 2320/2418 19012KT P6SM BKN025
     FM232300 24012G19KT P6SM BKN025
     FM240200 29015G24KT P6SM VCTS SCT018 BKN025CB
      TEMPO 2402/2405 4SM -TSRA BR BKN018CB
     FM240600 31014G19KT P6SM BKN025
     FM240900 30013KT P6SM SCT035
     FM241200 28011KT P6SM SKC=



000
FTUS44 KTSA 232000 AAA
TAFFSM
TAF AMD
KFSM 232003Z 2320/2418 07010KT P6SM BKN035
     FM232100 17012KT P6SM BKN035
     FM240300 28020G30KT P6SM BKN025 BKN050
     FM240600 30014G26KT P6SM BKN035
     FM240900 29012KT P6SM SKC=



000
FTUS44 KTSA 232000 AAA
TAFXNA
TAF AMD
KXNA 232003Z 2320/2418 19014KT P6SM BKN025
     FM232300 24012G19KT P6SM BKN025
     FM240200 29017G26KT P6SM BKN025
      TEMPO 2402/2405 4SM -TSRA BR BKN018CB
     FM240600 31014G19KT P6SM BKN025
     FM240900 30014KT P6SM SCT035
     FM241400 28011KT P6SM SCT050=



000
FTUS44 KTSA 232000 AAA
TAFXNA
TAF AMD
KXNA 232003Z 2320/2418 19014KT P6SM BKN025
     FM232300 24012G19KT P6SM BKN025
     FM240200 29017G26KT P6SM BKN025
      TEMPO 2402/2405 4SM -TSRA BR BKN018CB
     FM240600 31014G19KT P6SM BKN025
     FM240900 30014KT P6SM SCT035
     FM241400 28011KT P6SM SCT050=



000
FTUS44 KTSA 232000 AAA
TAFFSM
TAF AMD
KFSM 232003Z 2320/2418 07010KT P6SM BKN035
     FM232100 17012KT P6SM BKN035
     FM240300 28020G30KT P6SM BKN025 BKN050
     FM240600 30014G26KT P6SM BKN035
     FM240900 29012KT P6SM SKC=



000
FTUS44 KTSA 232000 AAA
TAFFYV
TAF AMD
KFYV 232003Z 2320/2418 19012KT P6SM BKN025
     FM232300 24012G19KT P6SM BKN025
     FM240200 29015G24KT P6SM VCTS SCT018 BKN025CB
      TEMPO 2402/2405 4SM -TSRA BR BKN018CB
     FM240600 31014G19KT P6SM BKN025
     FM240900 30013KT P6SM SCT035
     FM241200 28011KT P6SM SKC=



000
FTUS44 KTSA 232000 AAA
TAFRVS
TAF AMD
KRVS 232000Z 2320/2418 22012KT P6SM SCT025 BKN035
     FM232200 28012G18KT P6SM BKN050
     FM240000 32018G28KT P6SM SCT025 BKN050
      TEMPO 2402/2404 4SM -RA BR BKN025
     FM240400 33013KT P6SM BKN035
     FM240600 29009KT P6SM SCT120
     FM240900 26010KT P6SM SKC=



000
FTUS44 KTSA 232000 AAA
TAFTUL
TAF AMD
KTUL 232000Z 2320/2418 22014KT P6SM SCT025 BKN035
     FM232200 28014G21KT P6SM BKN050
     FM240000 32020G32KT P6SM SCT025 BKN050
      TEMPO 2402/2404 4SM -RA BR BKN025
     FM240400 33016KT P6SM BKN035
     FM240600 30012KT P6SM SCT120
     FM240900 28011KT P6SM SKC=



000
FTUS44 KTSA 231700 RRA
TAFTUL
TAF
KTUL 231745Z 2318/2418 17014KT P6SM BKN018 BKN025
     FM232100 22014G25KT P6SM BKN025
     FM240000 32020G32KT P6SM BKN025 BKN050
      TEMPO 2400/2402 4SM -RA BR BKN025
     FM240300 33016KT P6SM BKN035
     FM240600 30012KT P6SM SCT120
     FM240900 28011KT P6SM SKC=



000
FTUS44 KTSA 231700 RRA
TAFFSM
TAF
KFSM 231745Z 2318/2418 07010KT P6SM BKN025
     FM232100 17012KT P6SM BKN025
     FM240300 28020G30KT P6SM BKN025 BKN050
     FM240600 30014G26KT P6SM BKN035
     FM240900 29012KT P6SM SKC=



000
FTUS44 KTSA 231700 RRA
TAFXNA
TAF
KXNA 231745Z 2318/2418 17014KT P6SM BKN015 BKN025
     FM232300 21012G19KT P6SM BKN025
     FM240200 29017G26KT P6SM BKN025
      TEMPO 2402/2405 4SM -TSRA BR BKN018CB
     FM240600 31014G19KT P6SM BKN025
     FM240900 30014KT P6SM SCT035
     FM241400 28011KT P6SM SCT050=



000
FTUS44 KTSA 231700 RRA
TAFRVS
TAF
KRVS 231745Z 2318/2418 18012KT P6SM BKN018 BKN025
     FM232100 22014G23KT P6SM BKN025
     FM240000 32018G28KT P6SM BKN025 BKN050
      TEMPO 2400/2402 4SM -RA BR BKN025
     FM240300 33013KT P6SM BKN035
     FM240600 29009KT P6SM SCT120
     FM240900 26010KT P6SM SKC=



000
FTUS44 KTSA 231700 RRA
TAFMLC
TAF
KMLC 231745Z 2318/2418 20011G20KT P6SM SCT015 BKN035
     FM240100 32018G28KT P6SM BKN050
      TEMPO 2402/2404 BKN018
     FM240600 31014KT P6SM BKN050
     FM240900 28010KT P6SM SKC=



000
FTUS44 KTSA 231700 RRA
TAFFYV
TAF
KFYV 231745Z 2318/2418 17011G18KT P6SM BKN015 BKN025
     FM232300 21012G19KT P6SM BKN025
     FM240200 29015G24KT P6SM VCTS SCT018 BKN025CB
      TEMPO 2402/2405 4SM -TSRA BR BKN018CB
     FM240600 31014G19KT P6SM BKN025
     FM240900 30013KT P6SM SCT035
     FM241200 28011KT P6SM SKC=



000
FTUS44 KTSA 231300 AAA
TAFMLC
TAF AMD
KMLC 231357Z 2314/2412 18005KT P6SM OVC020
     FM231500 17011G25KT P6SM BKN015
     FM231800 22010G25KT P6SM SCT025 BKN050
     FM240100 29018G28KT P6SM BKN050
     FM240600 27007KT P6SM SKC=



000
FTUS44 KTSA 231300 AAA
TAFFSM
TAF AMD
KFSM 231357Z 2314/2412 03005KT P6SM BKN015
     FM231500 13008KT P6SM BKN025
     FM231800 22010G20KT P6SM SCT025 BKN050
     FM240200 28015G28KT P6SM BKN050
     FM240900 27015KT P6SM SCT050=



000
FTUS44 KTSA 231200 AAA
TAFRVS
TAF AMD
KRVS 231241Z 2313/2412 17005KT P6SM BKN012
     FM231500 17011G21KT P6SM OVC025
     FM231800 25015G30KT P6SM SCT025 BKN050
     FM232300 30015G30KT P6SM BKN050 PROB30 2323/2403 4SM -RA BR
      BKN025
     FM240600 27007KT P6SM SKC=



000
FTUS44 KTSA 231100
TAFMLC
TAF
KMLC 231126Z 2312/2412 18005KT P6SM OVC016
     FM231500 17011G25KT P6SM BKN015
     FM231800 22010G25KT P6SM SCT025 BKN050
     FM240100 29018G28KT P6SM BKN050
     FM240600 27007KT P6SM SKC=



000
FTUS44 KTSA 231100
TAFTUL
TAF
KTUL 231126Z 2312/2412 16008KT P6SM BKN006
     FM231500 17011G21KT P6SM OVC015
     FM231800 25015G30KT P6SM SCT025 BKN050
     FM232300 30015G30KT P6SM BKN050 PROB30 2323/2403 4SM -RA BR
      BKN025
     FM240600 27009KT P6SM SKC=



000
FTUS44 KTSA 231100
TAFFYV
TAF
KFYV 231126Z 2312/2412 16008KT P6SM SCT015 OVC090
      TEMPO 2312/2315 BKN015
     FM231500 19012KT P6SM BKN015
     FM231800 22012G25KT P6SM SCT015 BKN050
     FM240200 27015G28KT P6SM BKN025 PROB30 2405/2409 4SM -RA BR
      BKN025
     FM240900 27014KT P6SM SKC=



000
FTUS44 KTSA 231100
TAFRVS
TAF
KRVS 231126Z 2312/2412 17005KT P6SM BKN006
     FM231500 17011G21KT P6SM OVC015
     FM231800 25015G30KT P6SM SCT025 BKN050
     FM232300 30015G30KT P6SM BKN050 PROB30 2323/2403 4SM -RA BR
      BKN025
     FM240600 27007KT P6SM SKC=



000
FTUS44 KTSA 231100
TAFFSM
TAF
KFSM 231126Z 2312/2412 03008KT 6SM BR SCT005 BKN020
     FM231500 13008KT P6SM BKN015
     FM231800 22010G20KT P6SM SCT015 BKN050
     FM240200 28015G28KT P6SM BKN050
     FM240900 27015KT P6SM SCT050=



000
FTUS44 KTSA 231100
TAFXNA
TAF
KXNA 231126Z 2312/2412 16009KT P6SM OVC015
     FM231500 20012KT P6SM BKN015
     FM231800 22012G25KT P6SM SCT015 BKN050
     FM240200 27015G28KT P6SM BKN025 PROB30 2405/2409 4SM -RA BR
      BKN025
     FM240900 27014KT P6SM SKC=



    US Dept of Commerce
    National Oceanic and Atmospheric Administration
    National Weather Service
    1325 East West Highway
    Silver Spring, MD 20910
    Page Author: NWS Internet Services Team
Disclaimer
Information Quality
Credits
Glossary
Privacy Policy
Freedom of Information Act (FOIA)
About Us
Career Opportunities